Time;durP1;ratioP1;P1;durP2;ratioP2;P2;SDS_P1;SDS_P2;PMS_P1;PMS_P2;Temp;Humidity;BMP_temperature;BMP_pressure;BME280_temperature;BME280_humidity;BME280_pressure;Samples;Min_cycle;Max_cycle;Signal;HPM_P1;HPM_P2
2022/12/29 00:01:31;;;;;;;5.97;2.65;;;12.20;84.40;;;;;;5034380;28;20037;-70
2022/12/29 00:03:58;;;;;;;6.68;2.72;;;12.20;84.30;;;;;;5039139;28;20136;-69
2022/12/29 00:06:24;;;;;;;5.70;2.55;;;12.20;84.30;;;;;;5033831;28;20021;-71
2022/12/29 00:08:50;;;;;;;5.50;2.47;;;12.20;84.30;;;;;;5032383;28;20038;-70
2022/12/29 00:11:21;;;;;;;5.63;2.65;;;12.30;84.30;;;;;;4999990;28;20143;-70
2022/12/29 00:16:33;;;;;;;5.35;2.47;;;12.30;84.30;;;;;;5028268;28;20083;-70
2022/12/29 00:18:59;;;;;;;4.90;2.22;;;12.30;84.30;;;;;;5046038;28;20149;-70
2022/12/29 00:35:38;;;;;;;5.82;2.20;;;12.30;84.10;;;;;;5051486;28;20460;-70
2022/12/29 00:46:18;;;;;;;5.03;2.33;;;12.20;84.10;;;;;;5037173;28;20402;-69
2022/12/29 00:51:28;;;;;;;5.60;2.58;;;12.20;84.20;;;;;;5050297;28;20098;-70
2022/12/29 00:53:54;;;;;;;5.07;2.13;;;12.20;84.10;;;;;;5047052;28;20121;-71
2022/12/29 00:56:20;;;;;;;6.15;2.30;;;12.20;84.20;;;;;;5050813;28;21283;-70
2022/12/29 00:58:46;;;;;;;6.20;2.83;;;12.30;84.20;;;;;;5046719;28;20425;-70
2022/12/29 01:01:11;;;;;;;5.65;2.30;;;12.30;84.10;;;;;;5054146;28;20026;-70
2022/12/29 01:03:38;;;;;;;4.68;2.05;;;12.30;84.10;;;;;;5071286;28;20060;-71
2022/12/29 01:06:06;;;;;;;5.30;2.10;;;12.30;84.20;;;;;;5043129;28;20034;-70
2022/12/29 01:08:32;;;;;;;4.00;1.85;;;12.30;84.10;;;;;;5037041;28;20437;-70
2022/12/29 01:11:02;;;;;;;4.80;2.10;;;12.30;84.10;;;;;;5029430;28;20029;-70
2022/12/29 01:13:28;;;;;;;4.32;1.95;;;12.30;84.80;;;;;;5037878;28;20441;-70
2022/12/29 01:15:54;;;;;;;4.10;1.80;;;12.30;84.10;;;;;;5028585;28;20063;-71
2022/12/29 01:18:21;;;;;;;4.15;1.80;;;12.30;84.10;;;;;;5034302;28;20124;-71
2022/12/29 01:20:47;;;;;;;3.33;1.40;;;12.30;84.00;;;;;;5055731;28;20052;-71
2022/12/29 01:23:12;;;;;;;2.92;1.40;;;12.30;84.00;;;;;;5022434;28;20458;-70
2022/12/29 01:25:38;;;;;;;3.40;1.50;;;12.30;83.80;;;;;;5055344;28;20458;-71
2022/12/29 01:28:04;;;;;;;3.22;1.45;;;12.30;83.80;;;;;;5040250;28;20042;-70
2022/12/29 01:30:30;;;;;;;3.97;1.23;;;12.30;83.80;;;;;;5052315;28;20032;-71
2022/12/29 01:32:55;;;;;;;3.85;1.30;;;12.30;83.90;;;;;;5024188;28;20228;-70
2022/12/29 01:35:21;;;;;;;2.65;1.20;;;12.30;83.90;;;;;;5043527;28;20029;-70
2022/12/29 01:37:47;;;;;;;2.80;1.20;;;12.30;83.90;;;;;;5043451;28;20091;-70
2022/12/29 01:40:12;;;;;;;2.42;1.25;;;12.20;83.90;;;;;;5034927;28;20029;-70
2022/12/29 01:42:38;;;;;;;3.17;1.17;;;12.20;84.00;;;;;;5033901;28;20036;-70
2022/12/29 01:45:12;;;;;;;2.88;1.27;;;12.30;84.10;;;;;;5005871;28;20458;-71
2022/12/29 01:47:43;;;;;;;3.72;1.27;;;12.20;84.00;;;;;;5036608;28;20112;-69
2022/12/29 01:50:30;;;;;;;2.42;1.20;;;12.30;84.10;;;;;;5037283;28;20419;-70
2022/12/29 01:53:36;;;;;;;2.33;1.30;;;12.30;84.00;;;;;;5033528;28;20498;-70
2022/12/29 01:56:06;;;;;;;2.63;1.30;;;12.20;84.00;;;;;;5054658;28;20029;-70
2022/12/29 01:58:38;;;;;;;3.28;1.48;;;12.20;84.10;;;;;;5035606;28;20049;-70
2022/12/29 02:01:05;;;;;;;3.33;1.30;;;12.20;84.10;;;;;;5038759;28;20026;-70
2022/12/29 02:03:32;;;;;;;2.95;1.40;;;12.20;84.20;;;;;;5063716;28;20041;-70
2022/12/29 02:06:12;;;;;;;3.00;1.50;;;12.30;84.30;;;;;;5041891;28;20028;-70
2022/12/29 02:08:40;;;;;;;4.45;1.55;;;12.20;84.20;;;;;;5044752;28;20045;-70
2022/12/29 02:11:07;;;;;;;3.05;1.50;;;12.20;84.20;;;;;;5040172;28;20055;-70
2022/12/29 02:13:34;;;;;;;3.45;1.55;;;12.30;84.30;;;;;;5034113;28;20021;-70
2022/12/29 02:16:12;;;;;;;3.58;1.70;;;12.30;84.30;;;;;;5036181;28;20022;-71
2022/12/29 02:19:02;;;;;;;3.22;1.63;;;12.30;84.30;;;;;;5032030;28;20029;-70
2022/12/29 02:21:43;;;;;;;3.22;1.45;;;12.30;84.30;;;;;;5036729;28;20048;-70
2022/12/29 02:24:32;;;;;;;5.33;1.70;;;12.30;84.30;;;;;;5025665;28;20032;-70
2022/12/29 02:27:31;;;;;;;4.15;1.52;;;12.30;84.20;;;;;;5007134;28;20435;-70
2022/12/29 02:30:06;;;;;;;2.75;1.42;;;12.30;84.20;;;;;;5025629;28;20060;-70
2022/12/29 02:32:37;;;;;;;4.22;1.25;;;12.30;84.30;;;;;;5036026;28;20139;-70
2022/12/29 02:35:30;;;;;;;2.97;1.35;;;12.40;84.30;;;;;;5045995;28;20091;-71
2022/12/29 02:38:05;;;;;;;2.97;1.35;;;12.30;84.30;;;;;;5025836;28;20025;-71
2022/12/29 02:40:42;;;;;;;2.58;1.10;;;12.40;84.30;;;;;;5033873;28;20026;-71
2022/12/29 02:43:27;;;;;;;2.97;1.10;;;12.40;84.30;;;;;;5050001;28;20112;-70
2022/12/29 02:45:53;;;;;;;4.88;1.55;;;12.40;84.10;;;;;;5036916;28;20468;-70
2022/12/29 02:48:33;;;;;;;3.53;1.35;;;12.40;84.10;;;;;;5041353;28;20037;-70
2022/12/29 02:51:07;;;;;;;3.72;1.25;;;12.40;84.00;;;;;;5030539;28;20029;-70
2022/12/29 02:56:20;;;;;;;3.08;1.23;;;12.40;83.80;;;;;;5027393;28;20104;-70
2022/12/29 02:58:46;;;;;;;2.13;0.93;;;12.40;83.70;;;;;;5036538;28;20072;-70
2022/12/29 03:01:15;;;;;;;3.47;1.38;;;12.40;83.60;;;;;;5044266;28;20439;-70
2022/12/29 03:04:24;;;;;;;2.22;0.93;;;12.50;83.50;;;;;;5036211;28;20041;-70
2022/12/29 03:07:14;;;;;;;3.95;1.10;;;12.50;83.30;;;;;;5050324;28;20049;-71
2022/12/29 03:09:54;;;;;;;1.98;0.88;;;12.50;83.20;;;;;;5037749;28;20064;-70
2022/12/29 03:18:42;;;;;;;1.77;0.80;;;12.50;82.80;;;;;;5034876;28;20032;-70
2022/12/29 03:21:16;;;;;;;3.58;1.00;;;12.50;82.70;;;;;;5034820;28;20029;-70
2022/12/29 03:23:47;;;;;;;3.17;1.30;;;12.50;82.50;;;;;;5028199;28;20031;-70
2022/12/29 03:26:15;;;;;;;2.28;0.80;;;12.50;82.50;;;;;;5032643;28;20425;-70
2022/12/29 03:28:54;;;;;;;4.22;0.90;;;12.50;82.40;;;;;;5046192;28;20026;-70
2022/12/29 03:31:24;;;;;;;3.92;0.90;;;12.50;82.30;;;;;;5019479;28;20366;-71
2022/12/29 03:33:55;;;;;;;3.78;0.90;;;12.50;82.20;;;;;;5066485;28;20046;-70
2022/12/29 03:36:30;;;;;;;2.95;0.80;;;12.50;82.20;;;;;;5032551;28;20026;-70
2022/12/29 03:39:06;;;;;;;2.50;0.98;;;12.60;82.10;;;;;;5043002;28;20036;-70
2022/12/29 03:41:36;;;;;;;3.10;0.85;;;12.60;82.00;;;;;;5046197;28;20451;-70
2022/12/29 03:44:05;;;;;;;3.33;1.20;;;12.60;82.10;;;;;;5041666;28;20032;-70
2022/12/29 03:46:31;;;;;;;1.52;0.93;;;12.60;82.10;;;;;;5029219;28;20068;-70
2022/12/29 03:48:57;;;;;;;2.67;1.00;;;12.60;82.10;;;;;;5037927;28;20053;-71
2022/12/29 03:51:23;;;;;;;3.40;1.00;;;12.50;82.00;;;;;;5048337;28;20032;-71
2022/12/29 03:53:48;;;;;;;4.38;0.90;;;12.50;82.00;;;;;;5046161;28;20025;-70
2022/12/29 03:56:15;;;;;;;3.13;1.00;;;12.50;82.00;;;;;;5023864;28;20076;-71
2022/12/29 03:58:41;;;;;;;1.95;0.63;;;12.60;81.90;;;;;;5021730;28;20443;-70
2022/12/29 04:01:10;;;;;;;2.35;0.85;;;12.60;81.80;;;;;;5050165;28;20041;-70
2022/12/29 04:03:38;;;;;;;4.00;0.90;;;12.60;81.80;;;;;;5032236;28;20052;-71
2022/12/29 04:06:04;;;;;;;2.28;0.85;;;12.60;81.70;;;;;;5049921;28;20029;-70
2022/12/29 04:08:37;;;;;;;4.72;0.90;;;12.50;81.60;;;;;;5017915;28;20034;-71
2022/12/29 04:11:04;;;;;;;2.10;0.95;;;12.60;81.60;;;;;;5047679;28;20025;-70
2022/12/29 04:13:30;;;;;;;3.28;1.30;;;12.50;81.50;;;;;;5033057;28;20021;-70
2022/12/29 04:15:56;;;;;;;2.97;1.00;;;12.60;81.50;;;;;;5032316;28;20017;-70
2022/12/29 04:18:22;;;;;;;4.68;1.20;;;12.50;81.50;;;;;;5024294;28;20505;-71
2022/12/29 04:20:59;;;;;;;3.85;1.13;;;12.60;81.40;;;;;;5028101;28;20347;-69
2022/12/29 04:23:26;;;;;;;4.63;1.05;;;12.50;81.30;;;;;;5006630;28;20030;-69
2022/12/29 04:25:52;;;;;;;1.88;0.88;;;12.50;81.20;;;;;;5023795;28;20038;-68
2022/12/29 04:28:18;;;;;;;3.78;0.90;;;12.60;81.30;;;;;;5016782;28;20037;-69
2022/12/29 04:31:03;;;;;;;1.08;0.60;;;12.60;81.20;;;;;;5064951;28;20039;-68
2022/12/29 04:33:34;;;;;;;2.72;1.05;;;12.50;81.10;;;;;;5051557;28;20029;-68
2022/12/29 04:36:00;;;;;;;7.10;1.02;;;12.60;81.20;;;;;;5032898;28;20450;-69
2022/12/29 04:38:26;;;;;;;3.65;1.10;;;12.50;81.10;;;;;;5047903;28;20030;-68
2022/12/29 04:40:53;;;;;;;5.20;1.10;;;12.50;81.10;;;;;;5057316;28;20118;-69
2022/12/29 04:43:22;;;;;;;4.13;1.17;;;12.50;81.20;;;;;;5033638;28;20185;-69
2022/12/29 04:46:19;;;;;;;4.18;1.30;;;12.50;81.50;;;;;;5045061;28;20029;-69
2022/12/29 04:48:52;;;;;;;4.05;1.30;;;12.40;81.50;;;;;;5035860;28;20029;-69
2022/12/29 04:51:37;;;;;;;4.43;1.23;;;12.40;81.60;;;;;;5046126;28;20036;-69
2022/12/29 04:54:03;;;;;;;3.33;1.05;;;12.30;81.70;;;;;;5030709;28;20014;-68
2022/12/29 04:56:30;;;;;;;4.72;1.10;;;12.30;81.90;;;;;;5037490;28;20014;-69
2022/12/29 04:58:57;;;;;;;3.05;0.90;;;12.30;82.00;;;;;;5013154;28;20053;-69
2022/12/29 05:01:22;;;;;;;2.70;1.02;;;12.30;82.00;;;;;;5025767;28;20113;-69
2022/12/29 05:03:51;;;;;;;3.15;0.82;;;12.30;82.00;;;;;;5029963;28;20036;-69
2022/12/29 05:06:16;;;;;;;2.53;0.95;;;12.30;81.90;;;;;;5045408;28;20359;-69
2022/12/29 05:08:43;;;;;;;3.38;1.20;;;12.30;81.90;;;;;;5016573;28;20032;-69
2022/12/29 05:11:09;;;;;;;4.20;1.08;;;12.20;81.80;;;;;;5059869;28;20435;-69
2022/12/29 05:13:36;;;;;;;5.80;1.33;;;12.20;81.90;;;;;;5066051;28;20115;-69
2022/12/29 05:16:02;;;;;;;7.50;2.00;;;12.10;81.90;;;;;;5068324;28;20367;-69
2022/12/29 05:18:28;;;;;;;3.60;1.08;;;12.10;81.90;;;;;;5042982;28;20115;-69
2022/12/29 05:20:54;;;;;;;5.93;1.02;;;12.10;81.90;;;;;;5048307;28;20459;-69
2022/12/29 05:23:20;;;;;;;4.70;1.17;;;12.10;81.90;;;;;;5051171;28;20044;-69
2022/12/29 05:25:52;;;;;;;3.55;1.10;;;12.10;81.90;;;;;;5017390;28;20048;-69
2022/12/29 05:28:28;;;;;;;6.47;1.15;;;12.20;81.90;;;;;;5035712;28;20116;-69
2022/12/29 05:31:01;;;;;;;5.55;1.40;;;12.10;81.90;;;;;;5036422;28;20036;-69
2022/12/29 05:33:28;;;;;;;3.42;1.38;;;12.10;81.90;;;;;;5036809;28;20022;-69
2022/12/29 05:35:54;;;;;;;3.33;1.10;;;12.10;82.00;;;;;;5052165;28;20029;-69
2022/12/29 05:38:22;;;;;;;6.30;1.30;;;12.10;82.10;;;;;;5026746;28;20453;-69
2022/12/29 05:40:48;;;;;;;4.78;1.17;;;12.10;82.10;;;;;;5022174;28;20064;-69
2022/12/29 05:43:34;;;;;;;2.17;0.93;;;12.10;82.20;;;;;;5046461;28;20038;-69
2022/12/29 05:46:20;;;;;;;3.88;1.10;;;12.00;82.10;;;;;;5059108;28;20033;-69
2022/12/29 05:48:57;;;;;;;2.92;1.10;;;12.00;82.20;;;;;;5039424;28;20074;-69
2022/12/29 05:51:29;;;;;;;2.08;0.75;;;12.00;82.20;;;;;;5026231;28;20025;-68
2022/12/29 05:53:54;;;;;;;2.75;1.05;;;12.00;82.30;;;;;;5042094;28;20524;-70
2022/12/29 05:56:21;;;;;;;3.40;1.15;;;12.00;82.30;;;;;;5036807;28;20013;-69
2022/12/29 05:58:53;;;;;;;3.85;1.23;;;11.90;82.10;;;;;;5037176;28;20023;-69
2022/12/29 06:01:20;;;;;;;3.13;1.10;;;11.90;82.20;;;;;;5050670;28;20080;-69
2022/12/29 06:03:47;;;;;;;6.85;1.42;;;11.90;82.10;;;;;;5033747;28;20394;-69
2022/12/29 06:06:12;;;;;;;7.53;1.50;;;11.90;82.10;;;;;;5035984;28;20115;-69
2022/12/29 06:08:39;;;;;;;2.63;0.95;;;11.90;82.00;;;;;;5041424;28;20127;-71
2022/12/29 06:11:05;;;;;;;3.47;1.30;;;11.90;81.90;;;;;;5050501;28;20038;-71
2022/12/29 06:13:30;;;;;;;6.03;1.40;;;11.90;81.90;;;;;;5035031;28;20430;-70
2022/12/29 06:15:57;;;;;;;5.40;1.60;;;11.90;81.80;;;;;;5035281;28;20022;-69
2022/12/29 06:18:25;;;;;;;3.83;1.08;;;11.90;81.70;;;;;;5034551;28;20074;-71
2022/12/29 06:20:50;;;;;;;4.82;1.27;;;11.90;81.50;;;;;;5021037;28;20022;-68
2022/12/29 06:23:18;;;;;;;6.95;1.20;;;11.90;81.40;;;;;;5020862;28;20021;-68
2022/12/29 06:25:46;;;;;;;4.45;1.05;;;11.90;81.30;;;;;;5039756;28;20038;-68
2022/12/29 06:28:12;;;;;;;5.93;1.48;;;11.90;81.10;;;;;;5014949;28;20022;-68
2022/12/29 06:30:37;;;;;;;5.07;1.35;;;11.90;81.10;;;;;;5021983;28;20366;-69
2022/12/29 06:33:04;;;;;;;4.18;0.90;;;11.80;80.90;;;;;;5035086;28;20051;-69
2022/12/29 06:35:30;;;;;;;4.85;1.10;;;11.80;80.80;;;;;;5014885;28;20084;-69
2022/12/29 06:37:56;;;;;;;7.60;1.50;;;11.80;80.50;;;;;;5060051;28;20439;-69
2022/12/29 06:40:22;;;;;;;3.45;1.20;;;11.80;80.40;;;;;;5035005;28;20068;-69
2022/12/29 06:43:07;;;;;;;6.97;1.40;;;11.80;80.40;;;;;;5036658;28;20051;-69
2022/12/29 06:45:42;;;;;;;5.35;1.35;;;11.80;80.30;;;;;;5035382;28;20088;-69
2022/12/29 06:48:09;;;;;;;7.05;1.60;;;11.80;80.20;;;;;;5035521;28;20091;-71
2022/12/29 06:50:35;;;;;;;5.18;1.05;;;11.80;79.90;;;;;;5018358;28;20053;-70
2022/12/29 06:53:01;;;;;;;5.30;1.13;;;11.80;79.80;;;;;;5035869;28;20029;-70
2022/12/29 06:55:28;;;;;;;5.57;1.50;;;11.80;79.70;;;;;;5035889;28;20081;-70
2022/12/29 06:57:57;;;;;;;3.38;1.20;;;11.80;79.60;;;;;;5036535;28;20104;-72
2022/12/29 07:00:24;;;;;;;6.72;1.42;;;11.90;80.10;;;;;;5047576;28;20512;-70
2022/12/29 07:02:50;;;;;;;2.90;0.90;;;11.90;79.30;;;;;;5016164;28;20034;-71
2022/12/29 07:05:15;;;;;;;5.43;1.40;;;11.90;79.10;;;;;;5051502;28;20066;-72
2022/12/29 07:07:41;;;;;;;5.88;1.27;;;11.90;79.00;;;;;;5020994;28;20029;-71
2022/12/29 07:10:08;;;;;;;6.55;1.27;;;11.90;78.80;;;;;;5047943;28;20033;-71
2022/12/29 07:12:34;;;;;;;5.85;1.15;;;11.90;78.60;;;;;;5033525;28;20359;-70
2022/12/29 07:14:59;;;;;;;6.53;1.17;;;11.90;78.50;;;;;;5035792;28;20029;-69
2022/12/29 07:17:25;;;;;;;4.78;1.00;;;11.90;78.40;;;;;;5064980;28;20036;-69
2022/12/29 07:19:50;;;;;;;6.95;1.67;;;11.90;78.30;;;;;;5037256;28;20026;-70
2022/12/29 07:22:16;;;;;;;3.60;1.08;;;11.90;78.20;;;;;;5033754;28;20451;-69
2022/12/29 07:24:43;;;;;;;5.40;1.40;;;11.90;78.10;;;;;;5034168;28;20041;-71
2022/12/29 07:27:09;;;;;;;6.72;1.88;;;11.90;78.00;;;;;;5044016;28;20107;-69
2022/12/29 07:29:37;;;;;;;5.43;1.08;;;12.00;77.90;;;;;;5045647;28;20398;-69
2022/12/29 07:32:03;;;;;;;5.28;1.45;;;12.00;77.70;;;;;;5037946;28;20026;-70
2022/12/29 07:34:29;;;;;;;4.90;1.10;;;12.00;77.60;;;;;;5035019;28;20030;-70
2022/12/29 07:36:54;;;;;;;6.07;1.45;;;12.00;77.60;;;;;;4997979;28;20073;-70
2022/12/29 07:39:20;;;;;;;6.00;1.10;;;12.00;77.60;;;;;;5023992;28;20480;-76
2022/12/29 07:41:46;;;;;;;4.82;1.40;;;11.90;77.50;;;;;;5060941;28;20341;-74
2022/12/29 07:44:16;;;;;;;6.82;1.33;;;12.00;77.50;;;;;;5026151;28;20124;-74
2022/12/29 07:47:00;;;;;;;5.43;1.60;;;12.00;77.40;;;;;;5024527;28;20135;-75
2022/12/29 07:49:26;;;;;;;5.47;1.73;;;12.00;77.30;;;;;;5042703;28;20040;-74
2022/12/29 07:51:53;;;;;;;6.85;1.52;;;12.00;77.20;;;;;;5025324;28;20481;-75
2022/12/29 07:54:22;;;;;;;5.00;1.38;;;12.00;77.10;;;;;;5038447;28;20413;-75
2022/12/29 07:56:49;;;;;;;7.82;1.70;;;12.00;77.00;;;;;;5052992;28;20087;-77
2022/12/29 07:59:15;;;;;;;8.20;1.85;;;12.00;76.90;;;;;;5019993;28;20029;-76
2022/12/29 08:01:40;;;;;;;5.70;1.02;;;12.00;76.90;;;;;;5038607;28;20458;-74
2022/12/29 08:04:06;;;;;;;6.40;1.70;;;12.00;76.70;;;;;;5046392;28;20052;-75
2022/12/29 08:06:32;;;;;;;5.57;1.33;;;12.00;76.60;;;;;;5040212;28;20367;-75
2022/12/29 08:08:58;;;;;;;5.30;1.52;;;12.00;76.50;;;;;;5025187;28;20036;-76
2022/12/29 08:11:25;;;;;;;4.95;1.50;;;12.00;76.40;;;;;;5046763;28;20026;-75
2022/12/29 08:13:54;;;;;;;6.53;1.55;;;12.00;76.40;;;;;;5036882;28;20029;-72
2022/12/29 08:16:20;;;;;;;8.52;1.83;;;12.00;76.20;;;;;;5044137;28;20045;-72
2022/12/29 08:18:46;;;;;;;5.60;1.35;;;12.00;76.10;;;;;;5035055;28;20049;-73
2022/12/29 08:21:12;;;;;;;6.95;1.90;;;12.00;76.00;;;;;;5039614;28;20029;-75
2022/12/29 08:23:38;;;;;;;5.78;1.58;;;12.00;75.90;;;;;;5045995;28;20029;-75
2022/12/29 08:26:06;;;;;;;5.25;1.33;;;12.10;75.80;;;;;;5040466;28;20037;-74
2022/12/29 08:28:32;;;;;;;5.30;1.60;;;12.10;76.20;;;;;;5023916;28;20041;-74
2022/12/29 08:31:00;;;;;;;5.93;1.65;;;12.10;75.40;;;;;;5025958;28;20101;-76
2022/12/29 08:33:26;;;;;;;5.50;1.65;;;12.10;75.30;;;;;;5039224;28;20094;-78
2022/12/29 08:35:52;;;;;;;5.22;1.10;;;12.10;75.00;;;;;;5025280;28;20022;-75
2022/12/29 08:38:17;;;;;;;7.97;1.80;;;12.10;75.00;;;;;;5035532;28;20021;-74
2022/12/29 08:40:43;;;;;;;8.50;1.50;;;12.10;74.80;;;;;;5043051;28;20082;-74
2022/12/29 08:43:11;;;;;;;7.32;1.58;;;12.20;74.70;;;;;;5037302;28;20037;-73
2022/12/29 08:45:36;;;;;;;7.18;1.60;;;12.20;74.50;;;;;;5046393;28;20017;-74
2022/12/29 08:48:02;;;;;;;6.93;1.38;;;12.30;74.40;;;;;;5032306;28;20087;-74
2022/12/29 08:50:28;;;;;;;8.10;1.42;;;12.30;74.10;;;;;;5047212;28;20025;-75
2022/12/29 08:52:54;;;;;;;6.88;2.00;;;12.40;73.80;;;;;;5052609;28;20020;-74
2022/12/29 08:55:19;;;;;;;11.73;2.13;;;12.40;73.60;;;;;;5033944;28;20068;-73
2022/12/29 08:57:47;;;;;;;7.90;1.60;;;12.40;73.50;;;;;;5015979;28;20328;-72
2022/12/29 09:00:16;;;;;;;5.80;1.55;;;12.40;73.60;;;;;;5013054;28;20349;-74
2022/12/29 09:02:42;;;;;;;5.32;1.65;;;12.40;73.60;;;;;;5044693;28;20029;-74
2022/12/29 09:05:08;;;;;;;9.40;2.17;;;12.40;73.70;;;;;;5065730;28;20094;-76
2022/12/29 09:07:34;;;;;;;9.40;1.70;;;12.40;73.70;;;;;;5048696;28;20105;-75
2022/12/29 09:09:59;;;;;;;8.77;1.75;;;12.40;73.80;;;;;;5031704;28;20429;-76
2022/12/29 09:12:25;;;;;;;8.70;1.77;;;12.30;73.70;;;;;;5037289;28;20052;-78
2022/12/29 09:14:51;;;;;;;12.02;2.13;;;12.30;73.80;;;;;;5044800;28;20084;-78
2022/12/29 09:20:05;;;;;;;9.48;1.83;;;12.30;74.00;;;;;;5034828;28;20033;-77
2022/12/29 09:22:33;;;;;;;4.65;1.58;;;12.20;74.10;;;;;;5072693;28;20346;-78
2022/12/29 09:25:01;;;;;;;7.38;1.65;;;12.20;74.30;;;;;;5058027;28;20048;-78
2022/12/29 09:27:28;;;;;;;7.35;1.73;;;12.20;74.50;;;;;;5040099;28;20433;-77
2022/12/29 09:29:53;;;;;;;6.90;1.50;;;12.10;74.70;;;;;;5043787;28;20073;-77
2022/12/29 09:32:19;;;;;;;8.32;1.73;;;12.10;74.80;;;;;;5026282;28;20107;-78
2022/12/29 09:34:45;;;;;;;6.18;1.85;;;12.10;74.80;;;;;;5056424;28;20059;-77
2022/12/29 09:37:11;;;;;;;7.65;1.73;;;12.10;74.90;;;;;;5041920;28;20029;-77
2022/12/29 09:39:38;;;;;;;11.45;2.60;;;12.10;75.00;;;;;;5056119;28;20430;-77
2022/12/29 09:42:11;;;;;;;7.90;2.22;;;12.00;74.90;;;;;;5057389;28;20036;-77
2022/12/29 09:45:03;;;;;;;5.95;1.58;;;12.10;74.90;;;;;;5052241;28;20401;-77
2022/12/29 09:47:32;;;;;;;9.27;1.90;;;12.10;74.80;;;;;;5034371;28;20048;-77
2022/12/29 09:50:26;;;;;;;8.20;1.85;;;12.10;74.80;;;;;;5036404;28;20387;-77
2022/12/29 09:53:07;;;;;;;10.27;1.73;;;12.10;74.70;;;;;;5042093;28;20036;-77
2022/12/29 09:55:46;;;;;;;8.80;1.47;;;12.10;74.70;;;;;;5043966;28;20083;-77
2022/12/29 09:58:49;;;;;;;4.93;1.60;;;12.10;74.80;;;;;;5035716;28;20041;-77
2022/12/29 10:01:54;;;;;;;5.70;1.60;;;12.10;74.80;;;;;;5034745;28;20030;-77
2022/12/29 10:04:20;;;;;;;6.18;1.77;;;12.10;74.90;;;;;;5037989;28;20100;-77
2022/12/29 10:07:34;;;;;;;7.20;1.80;;;12.10;75.00;;;;;;5024133;28;20029;-77
2022/12/29 10:10:06;;;;;;;6.07;1.70;;;12.00;75.10;;;;;;4997042;28;20195;-77
2022/12/29 10:12:55;;;;;;;7.63;1.60;;;12.00;75.50;;;;;;4996261;28;20054;-77
2022/12/29 10:15:40;;;;;;;5.88;1.48;;;12.00;75.70;;;;;;5013475;28;20038;-77
2022/12/29 10:18:05;;;;;;;6.38;1.35;;;11.90;75.90;;;;;;4978607;28;20055;-77
2022/12/29 10:20:54;;;;;;;8.45;1.40;;;11.90;76.10;;;;;;4998329;28;20053;-77
2022/12/29 10:23:45;;;;;;;8.85;1.80;;;11.90;76.20;;;;;;4981676;28;20038;-77
2022/12/29 10:26:26;;;;;;;5.10;1.52;;;11.90;76.50;;;;;;5003898;28;20046;-80
2022/12/29 10:28:57;;;;;;;6.78;1.60;;;11.80;76.70;;;;;;4978901;28;20130;-78
2022/12/29 10:31:28;;;;;;;9.40;2.35;;;11.80;76.90;;;;;;4997138;28;20122;-77
2022/12/29 10:33:59;;;;;;;5.70;1.30;;;11.80;77.30;;;;;;4980619;28;20359;-78
2022/12/29 10:36:35;;;;;;;6.70;1.60;;;11.70;77.30;;;;;;4998140;28;20041;-78
2022/12/29 10:39:19;;;;;;;3.33;1.20;;;11.70;77.50;;;;;;4980794;28;20529;-77
2022/12/29 10:41:55;;;;;;;6.10;1.48;;;11.70;77.60;;;;;;4978899;28;20038;-77
2022/12/29 10:44:22;;;;;;;5.95;1.55;;;11.70;77.80;;;;;;5022070;28;20043;-72
2022/12/29 10:46:57;;;;;;;5.97;1.48;;;11.70;77.90;;;;;;5032543;28;20422;-77
2022/12/29 10:49:26;;;;;;;6.70;1.42;;;11.70;78.00;;;;;;5032983;28;20033;-76
2022/12/29 10:51:56;;;;;;;7.55;1.23;;;11.70;78.10;;;;;;5037879;28;20044;-75
2022/12/29 10:54:37;;;;;;;6.57;1.50;;;11.70;78.20;;;;;;5041170;28;20100;-75
2022/12/29 10:57:33;;;;;;;6.53;1.58;;;11.70;78.30;;;;;;5046438;28;20033;-75
2022/12/29 11:00:08;;;;;;;3.67;1.13;;;11.70;78.40;;;;;;5021772;28;20033;-76
2022/12/29 11:03:09;;;;;;;7.30;1.40;;;11.70;78.60;;;;;;5032213;28;20048;-74
2022/12/29 11:06:01;;;;;;;6.37;1.90;;;11.70;78.70;;;;;;5037781;28;20435;-74
2022/12/29 11:08:35;;;;;;;8.30;2.15;;;11.70;78.70;;;;;;5041830;28;20078;-75
2022/12/29 11:11:03;;;;;;;7.90;1.55;;;11.70;78.80;;;;;;5051170;28;20024;-74
2022/12/29 11:13:32;;;;;;;5.57;2.13;;;11.70;78.90;;;;;;5051990;28;20103;-74
2022/12/29 11:15:59;;;;;;;7.72;1.88;;;11.80;79.00;;;;;;5044787;28;20104;-76
2022/12/29 11:18:40;;;;;;;7.70;2.13;;;11.80;79.10;;;;;;5018608;28;20075;-74
2022/12/29 11:21:24;;;;;;;8.40;1.80;;;11.80;79.10;;;;;;5041083;28;20119;-74
2022/12/29 11:24:02;;;;;;;8.73;2.53;;;11.80;79.00;;;;;;5048566;28;20033;-75
2022/12/29 11:26:29;;;;;;;6.32;1.77;;;11.90;79.10;;;;;;5038883;28;20056;-76
2022/12/29 11:29:15;;;;;;;6.63;2.25;;;11.80;79.00;;;;;;5039778;28;20075;-76
2022/12/29 11:31:42;;;;;;;8.20;2.00;;;11.90;79.00;;;;;;5033509;28;20036;-75
2022/12/29 11:34:08;;;;;;;8.77;2.05;;;11.90;79.00;;;;;;5048331;28;20029;-74
2022/12/29 11:36:35;;;;;;;9.23;1.95;;;11.90;78.90;;;;;;5034753;28;20023;-74
2022/12/29 11:39:02;;;;;;;9.30;2.55;;;11.90;78.90;;;;;;5044237;28;20041;-75
2022/12/29 11:41:31;;;;;;;10.43;2.95;;;11.90;78.90;;;;;;5063921;28;20033;-74
2022/12/29 11:44:00;;;;;;;11.45;2.83;;;12.00;79.00;;;;;;5039442;28;20029;-74
2022/12/29 11:46:35;;;;;;;10.38;2.35;;;12.00;78.90;;;;;;5045773;28;20041;-74
2022/12/29 11:49:03;;;;;;;7.13;3.08;;;12.00;78.90;;;;;;5036980;28;20132;-75
2022/12/29 11:51:42;;;;;;;9.98;2.55;;;12.00;78.80;;;;;;5034464;28;20025;-74
2022/12/29 11:54:32;;;;;;;8.63;3.08;;;12.10;78.80;;;;;;5039525;28;20028;-74
2022/12/29 11:57:08;;;;;;;11.00;3.10;;;12.10;78.70;;;;;;5050834;28;20080;-76
2022/12/29 11:59:41;;;;;;;10.82;2.50;;;12.00;78.70;;;;;;5032315;28;20115;-76
2022/12/29 12:02:31;;;;;;;7.95;2.80;;;12.10;78.70;;;;;;5046438;28;20040;-75
2022/12/29 12:05:08;;;;;;;11.52;2.70;;;12.10;78.50;;;;;;5051282;28;20449;-76
2022/12/29 12:07:46;;;;;;;9.75;2.78;;;12.00;78.40;;;;;;5038624;28;20163;-76
2022/12/29 12:10:24;;;;;;;10.48;2.92;;;12.00;78.40;;;;;;5050266;28;20048;-76
2022/12/29 12:13:20;;;;;;;6.80;2.33;;;12.00;78.50;;;;;;5038092;28;20498;-77
2022/12/29 12:16:07;;;;;;;9.73;2.60;;;12.00;78.50;;;;;;5057875;28;20040;-77
2022/12/29 12:18:39;;;;;;;11.60;3.33;;;12.00;78.50;;;;;;5020987;28;20030;-76
2022/12/29 12:21:37;;;;;;;9.27;2.67;;;12.00;78.30;;;;;;5038297;28;20029;-76
2022/12/29 12:24:33;;;;;;;8.32;2.33;;;12.10;78.10;;;;;;5051074;28;20052;-77
2022/12/29 12:27:19;;;;;;;10.82;2.92;;;12.10;77.90;;;;;;5035030;28;21192;-77
2022/12/29 12:30:15;;;;;;;11.40;2.95;;;12.10;77.80;;;;;;5032639;28;20061;-78
2022/12/29 12:33:03;;;;;;;10.68;2.30;;;12.10;77.70;;;;;;5040946;28;20024;-77
2022/12/29 12:35:54;;;;;;;9.73;2.60;;;12.10;77.60;;;;;;5046428;28;20446;-77
2022/12/29 12:38:55;;;;;;;9.35;3.03;;;12.20;77.50;;;;;;5045418;28;20016;-78
2022/12/29 12:41:38;;;;;;;8.88;2.70;;;12.20;77.30;;;;;;5034300;28;20124;-78
2022/12/29 12:44:42;;;;;;;9.07;3.05;;;12.20;77.10;;;;;;5035168;28;20493;-77
2022/12/29 12:47:23;;;;;;;9.38;3.08;;;12.20;77.00;;;;;;5052015;28;20025;-77
2022/12/29 12:50:16;;;;;;;10.20;2.92;;;12.20;77.00;;;;;;5042875;28;20025;-77
2022/12/29 12:53:05;;;;;;;9.30;3.05;;;12.30;76.90;;;;;;5068426;28;20045;-77
2022/12/29 12:55:45;;;;;;;7.85;2.88;;;12.40;76.70;;;;;;5037505;28;20136;-77
2022/12/29 12:58:42;;;;;;;7.00;2.63;;;12.40;76.60;;;;;;5051283;28;20036;-76
2022/12/29 13:01:35;;;;;;;13.40;3.80;;;12.40;76.50;;;;;;5019561;28;20045;-77
2022/12/29 13:04:28;;;;;;;10.40;2.88;;;12.40;76.50;;;;;;5014283;28;20030;-78
2022/12/29 13:07:01;;;;;;;9.93;3.13;;;12.40;76.30;;;;;;5031443;28;20354;-80
2022/12/29 13:09:45;;;;;;;7.70;2.83;;;12.40;76.30;;;;;;5028796;28;20021;-80
2022/12/29 13:12:27;;;;;;;11.27;2.63;;;12.40;76.30;;;;;;5054760;28;20025;-80
2022/12/29 13:15:16;;;;;;;10.52;2.83;;;12.40;76.30;;;;;;5042627;28;20048;-79
2022/12/29 13:17:58;;;;;;;7.93;2.70;;;12.40;76.40;;;;;;5035916;28;20079;-77
2022/12/29 13:20:28;;;;;;;;;;;12.40;76.30;;;;;;5066739;28;20036;-77
2022/12/29 13:23:06;;;;;;;11.25;3.42;;;12.40;76.50;;;;;;5042392;28;19908;-77
2022/12/29 13:25:53;;;;;;;8.80;2.80;;;12.30;76.50;;;;;;5032874;28;20117;-77
2022/12/29 13:28:37;;;;;;;8.30;2.42;;;12.30;76.30;;;;;;5033758;28;20440;-77
2022/12/29 13:31:40;;;;;;;10.85;2.72;;;12.30;76.50;;;;;;5039929;28;20045;-77
2022/12/29 13:34:56;;;;;;;11.57;2.75;;;12.30;76.40;;;;;;5056632;28;20036;-77
2022/12/29 13:37:27;;;;;;;13.30;2.83;;;12.30;76.50;;;;;;5022542;28;20075;-77
2022/12/29 13:39:57;;;;;;;6.10;2.63;;;12.20;76.50;;;;;;5017101;28;20037;-77
2022/12/29 13:42:25;;;;;;;13.73;2.95;;;12.20;76.60;;;;;;5016496;28;20079;-77
2022/12/29 13:45:00;;;;;;;8.25;2.63;;;12.20;76.60;;;;;;5040033;28;20043;-77
2022/12/29 13:47:44;;;;;;;8.85;2.35;;;12.20;76.60;;;;;;5027376;28;20033;-77
2022/12/29 13:50:18;;;;;;;8.57;2.90;;;12.20;76.60;;;;;;5024977;28;20045;-77
2022/12/29 13:52:57;;;;;;;9.25;2.25;;;12.20;76.60;;;;;;5038706;28;20477;-77
2022/12/29 13:55:37;;;;;;;9.02;2.08;;;12.20;76.40;;;;;;5035868;28;20033;-77